sensor_id;sensor_type;location;lat;lon;timestamp;pressure;altitude;pressure_sealevel;temperature;humidity
15314;BME280;7757;52.626;4.746;2022-10-13T00:00:31;101660.91;;;18.48;60.75
15314;BME280;7757;52.626;4.746;2022-10-13T00:02:59;101671.75;;;18.48;61.08
15314;BME280;7757;52.626;4.746;2022-10-13T00:05:32;101671.75;;;18.48;60.79
15314;BME280;7757;52.626;4.746;2022-10-13T00:07:59;101666.31;;;18.55;60.81
15314;BME280;7757;52.626;4.746;2022-10-13T00:10:26;101669.88;;;18.55;60.59
15314;BME280;7757;52.626;4.746;2022-10-13T00:12:52;101675.91;;;18.57;60.50
15314;BME280;7757;52.626;4.746;2022-10-13T00:15:19;101670.72;;;18.56;60.88
15314;BME280;7757;52.626;4.746;2022-10-13T00:17:45;101663.81;;;18.60;60.92
15314;BME280;7757;52.626;4.746;2022-10-13T00:20:12;101659.69;;;18.51;60.68
15314;BME280;7757;52.626;4.746;2022-10-13T00:22:40;101674.88;;;18.52;60.47
15314;BME280;7757;52.626;4.746;2022-10-13T00:25:07;101670.53;;;18.44;60.68
15314;BME280;7757;52.626;4.746;2022-10-13T00:27:34;101664.69;;;18.54;60.54
15314;BME280;7757;52.626;4.746;2022-10-13T00:30:00;101664.06;;;18.52;60.75
15314;BME280;7757;52.626;4.746;2022-10-13T00:32:27;101662.84;;;18.41;61.02
15314;BME280;7757;52.626;4.746;2022-10-13T00:34:54;101653.66;;;18.49;60.83
15314;BME280;7757;52.626;4.746;2022-10-13T00:37:22;101665.13;;;18.51;60.63
15314;BME280;7757;52.626;4.746;2022-10-13T00:39:49;101662.19;;;18.46;60.94
15314;BME280;7757;52.626;4.746;2022-10-13T00:42:16;101659.97;;;18.36;60.90
15314;BME280;7757;52.626;4.746;2022-10-13T00:45:04;101660.44;;;18.26;61.96
15314;BME280;7757;52.626;4.746;2022-10-13T00:47:35;101651.03;;;18.29;61.34
15314;BME280;7757;52.626;4.746;2022-10-13T00:50:04;101654.56;;;18.36;61.18
15314;BME280;7757;52.626;4.746;2022-10-13T00:52:32;101653.25;;;18.45;60.52
15314;BME280;7757;52.626;4.746;2022-10-13T00:55:01;101658.94;;;18.30;60.92
15314;BME280;7757;52.626;4.746;2022-10-13T00:57:29;101651.50;;;18.19;61.71
15314;BME280;7757;52.626;4.746;2022-10-13T00:59:56;101651.69;;;18.24;61.44
15314;BME280;7757;52.626;4.746;2022-10-13T01:02:26;101647.44;;;17.97;61.47
15314;BME280;7757;52.626;4.746;2022-10-13T01:04:57;101644.59;;;18.23;61.13
15314;BME280;7757;52.626;4.746;2022-10-13T01:07:25;101631.03;;;18.30;61.38
15314;BME280;7757;52.626;4.746;2022-10-13T01:09:52;101632.22;;;18.03;62.36
15314;BME280;7757;52.626;4.746;2022-10-13T01:12:29;101626.56;;;18.04;61.94
15314;BME280;7757;52.626;4.746;2022-10-13T01:15:02;101633.00;;;18.10;61.82
15314;BME280;7757;52.626;4.746;2022-10-13T01:17:37;101638.81;;;18.13;61.74
15314;BME280;7757;52.626;4.746;2022-10-13T01:20:36;101622.56;;;18.13;61.27
15314;BME280;7757;52.626;4.746;2022-10-13T01:23:37;101628.41;;;18.10;61.40
15314;BME280;7757;52.626;4.746;2022-10-13T01:26:51;101630.94;;;18.12;61.67
15314;BME280;7757;52.626;4.746;2022-10-13T01:29:46;101625.38;;;18.00;61.76
15314;BME280;7757;52.626;4.746;2022-10-13T01:32:19;101631.22;;;17.91;62.33
15314;BME280;7757;52.626;4.746;2022-10-13T01:34:51;101622.94;;;17.79;62.63
15314;BME280;7757;52.626;4.746;2022-10-13T01:37:24;101623.72;;;17.93;61.97
15314;BME280;7757;52.626;4.746;2022-10-13T01:39:56;101614.56;;;17.94;61.79
15314;BME280;7757;52.626;4.746;2022-10-13T01:42:35;101610.84;;;17.88;61.89
15314;BME280;7757;52.626;4.746;2022-10-13T01:45:09;101614.16;;;17.90;62.31
15314;BME280;7757;52.626;4.746;2022-10-13T01:47:37;101610.75;;;18.01;61.91
15314;BME280;7757;52.626;4.746;2022-10-13T01:50:06;101603.03;;;18.05;61.33
15314;BME280;7757;52.626;4.746;2022-10-13T01:52:36;101601.59;;;18.02;61.51
15314;BME280;7757;52.626;4.746;2022-10-13T01:55:06;101595.34;;;18.02;62.10
15314;BME280;7757;52.626;4.746;2022-10-13T01:57:35;101598.53;;;17.92;61.71
15314;BME280;7757;52.626;4.746;2022-10-13T02:00:07;101582.22;;;18.05;61.93
15314;BME280;7757;52.626;4.746;2022-10-13T02:02:40;101579.91;;;18.09;61.86
15314;BME280;7757;52.626;4.746;2022-10-13T02:05:14;101584.56;;;17.95;62.09
15314;BME280;7757;52.626;4.746;2022-10-13T02:07:48;101573.50;;;18.03;62.04
15314;BME280;7757;52.626;4.746;2022-10-13T02:10:22;101574.00;;;17.87;62.63
15314;BME280;7757;52.626;4.746;2022-10-13T02:12:56;101575.63;;;17.95;62.25
15314;BME280;7757;52.626;4.746;2022-10-13T02:15:29;101568.31;;;17.95;62.51
15314;BME280;7757;52.626;4.746;2022-10-13T02:17:57;101559.63;;;17.87;62.72
15314;BME280;7757;52.626;4.746;2022-10-13T02:20:26;101568.75;;;17.92;62.16
15314;BME280;7757;52.626;4.746;2022-10-13T02:22:56;101560.44;;;17.94;62.19
15314;BME280;7757;52.626;4.746;2022-10-13T02:25:26;101561.41;;;18.06;62.04
15314;BME280;7757;52.626;4.746;2022-10-13T02:27:53;101552.47;;;17.99;61.82
15314;BME280;7757;52.626;4.746;2022-10-13T02:30:22;101545.19;;;17.99;62.32
15314;BME280;7757;52.626;4.746;2022-10-13T02:32:51;101554.34;;;17.98;62.41
15314;BME280;7757;52.626;4.746;2022-10-13T02:35:18;101556.28;;;17.91;62.47
15314;BME280;7757;52.626;4.746;2022-10-13T02:37:45;101564.16;;;17.93;62.78
15314;BME280;7757;52.626;4.746;2022-10-13T02:40:12;101559.53;;;18.06;62.02
15314;BME280;7757;52.626;4.746;2022-10-13T02:42:39;101558.47;;;18.07;62.30
15314;BME280;7757;52.626;4.746;2022-10-13T02:45:07;101550.19;;;18.02;62.14
15314;BME280;7757;52.626;4.746;2022-10-13T02:47:34;101551.97;;;18.15;61.81
15314;BME280;7757;52.626;4.746;2022-10-13T02:50:02;101553.78;;;17.90;62.63
15314;BME280;7757;52.626;4.746;2022-10-13T02:52:30;101541.25;;;17.95;62.56
15314;BME280;7757;52.626;4.746;2022-10-13T02:54:57;101534.81;;;17.96;61.77
15314;BME280;7757;52.626;4.746;2022-10-13T02:57:23;101531.66;;;17.99;62.35
15314;BME280;7757;52.626;4.746;2022-10-13T02:59:50;101529.34;;;18.03;61.93
15314;BME280;7757;52.626;4.746;2022-10-13T03:02:17;101525.66;;;17.97;62.48
15314;BME280;7757;52.626;4.746;2022-10-13T03:04:44;101533.19;;;17.89;62.79
15314;BME280;7757;52.626;4.746;2022-10-13T03:07:12;101534.53;;;18.04;61.78
15314;BME280;7757;52.626;4.746;2022-10-13T03:09:39;101528.56;;;17.96;62.21
15314;BME280;7757;52.626;4.746;2022-10-13T03:12:06;101536.34;;;17.79;62.66
15314;BME280;7757;52.626;4.746;2022-10-13T03:14:33;101507.00;;;17.82;62.76
15314;BME280;7757;52.626;4.746;2022-10-13T03:16:59;101511.47;;;17.95;63.03
15314;BME280;7757;52.626;4.746;2022-10-13T03:19:26;101514.78;;;18.04;62.29
15314;BME280;7757;52.626;4.746;2022-10-13T03:21:53;101518.72;;;18.01;62.48
15314;BME280;7757;52.626;4.746;2022-10-13T03:24:20;101514.19;;;17.95;62.30
15314;BME280;7757;52.626;4.746;2022-10-13T03:26:47;101521.13;;;17.84;62.74
15314;BME280;7757;52.626;4.746;2022-10-13T03:29:14;101523.16;;;17.89;62.52
15314;BME280;7757;52.626;4.746;2022-10-13T03:31:42;101519.75;;;17.69;63.40
15314;BME280;7757;52.626;4.746;2022-10-13T03:34:10;101515.69;;;17.91;62.78
15314;BME280;7757;52.626;4.746;2022-10-13T03:36:37;101514.72;;;17.79;63.20
15314;BME280;7757;52.626;4.746;2022-10-13T03:39:04;101507.47;;;17.73;63.50
15314;BME280;7757;52.626;4.746;2022-10-13T03:41:32;101509.91;;;17.81;62.96
15314;BME280;7757;52.626;4.746;2022-10-13T03:43:58;101512.56;;;17.88;62.71
15314;BME280;7757;52.626;4.746;2022-10-13T03:46:27;101510.75;;;17.81;62.89
15314;BME280;7757;52.626;4.746;2022-10-13T03:48:54;101509.03;;;17.87;62.97
15314;BME280;7757;52.626;4.746;2022-10-13T03:51:22;101507.44;;;17.79;63.50
15314;BME280;7757;52.626;4.746;2022-10-13T03:53:50;101500.59;;;17.70;63.46
15314;BME280;7757;52.626;4.746;2022-10-13T03:56:19;101499.50;;;17.78;63.38
15314;BME280;7757;52.626;4.746;2022-10-13T03:58:47;101500.47;;;17.90;62.43
15314;BME280;7757;52.626;4.746;2022-10-13T04:01:18;101499.72;;;17.83;62.90
15314;BME280;7757;52.626;4.746;2022-10-13T04:03:44;101504.31;;;17.76;62.91
15314;BME280;7757;52.626;4.746;2022-10-13T04:06:11;101504.06;;;17.84;63.17
15314;BME280;7757;52.626;4.746;2022-10-13T04:08:37;101513.59;;;17.93;62.92
15314;BME280;7757;52.626;4.746;2022-10-13T04:11:06;101510.72;;;17.88;62.94
15314;BME280;7757;52.626;4.746;2022-10-13T04:13:33;101513.75;;;17.98;62.23
15314;BME280;7757;52.626;4.746;2022-10-13T04:16:03;101490.97;;;17.81;62.97
15314;BME280;7757;52.626;4.746;2022-10-13T04:18:31;101497.63;;;17.85;62.83
15314;BME280;7757;52.626;4.746;2022-10-13T04:20:57;101501.97;;;17.86;63.65
15314;BME280;7757;52.626;4.746;2022-10-13T04:23:24;101501.88;;;17.99;62.89
15314;BME280;7757;52.626;4.746;2022-10-13T04:25:51;101495.34;;;17.82;62.99
15314;BME280;7757;52.626;4.746;2022-10-13T04:28:17;101499.72;;;17.83;63.00
15314;BME280;7757;52.626;4.746;2022-10-13T04:30:44;101492.38;;;17.90;62.80
15314;BME280;7757;52.626;4.746;2022-10-13T04:33:12;101491.75;;;17.88;62.51
15314;BME280;7757;52.626;4.746;2022-10-13T04:35:39;101491.53;;;17.90;62.87
15314;BME280;7757;52.626;4.746;2022-10-13T04:38:06;101492.97;;;17.92;62.76
15314;BME280;7757;52.626;4.746;2022-10-13T04:40:33;101481.66;;;17.70;63.62
15314;BME280;7757;52.626;4.746;2022-10-13T04:43:00;101480.09;;;17.88;63.47
15314;BME280;7757;52.626;4.746;2022-10-13T04:45:26;101478.84;;;17.90;63.17
15314;BME280;7757;52.626;4.746;2022-10-13T04:47:53;101487.78;;;17.91;63.13
15314;BME280;7757;52.626;4.746;2022-10-13T04:50:21;101472.28;;;18.04;62.44
15314;BME280;7757;52.626;4.746;2022-10-13T04:52:48;101485.66;;;17.99;62.48
15314;BME280;7757;52.626;4.746;2022-10-13T04:55:15;101478.56;;;17.98;62.66
15314;BME280;7757;52.626;4.746;2022-10-13T04:57:41;101476.56;;;17.87;63.17
15314;BME280;7757;52.626;4.746;2022-10-13T05:00:08;101491.59;;;17.83;63.50
15314;BME280;7757;52.626;4.746;2022-10-13T05:02:36;101476.66;;;17.74;64.05
15314;BME280;7757;52.626;4.746;2022-10-13T05:05:03;101482.00;;;17.80;63.08
15314;BME280;7757;52.626;4.746;2022-10-13T05:07:31;101473.88;;;17.80;63.66
15314;BME280;7757;52.626;4.746;2022-10-13T05:09:58;101475.19;;;17.71;63.80
15314;BME280;7757;52.626;4.746;2022-10-13T05:12:25;101478.22;;;17.50;64.72
15314;BME280;7757;52.626;4.746;2022-10-13T05:14:51;101466.88;;;17.73;64.11
15314;BME280;7757;52.626;4.746;2022-10-13T05:17:18;101468.34;;;17.69;64.18
15314;BME280;7757;52.626;4.746;2022-10-13T05:19:45;101467.03;;;17.78;64.05
15314;BME280;7757;52.626;4.746;2022-10-13T05:22:11;101464.91;;;17.87;63.53
15314;BME280;7757;52.626;4.746;2022-10-13T05:24:39;101470.75;;;17.83;63.29
15314;BME280;7757;52.626;4.746;2022-10-13T05:27:09;101471.72;;;17.64;64.81
15314;BME280;7757;52.626;4.746;2022-10-13T05:29:37;101466.94;;;17.60;65.05
15314;BME280;7757;52.626;4.746;2022-10-13T05:32:04;101457.19;;;17.52;65.20
15314;BME280;7757;52.626;4.746;2022-10-13T05:34:31;101465.47;;;17.64;64.90
15314;BME280;7757;52.626;4.746;2022-10-13T05:36:58;101472.94;;;17.68;64.58
15314;BME280;7757;52.626;4.746;2022-10-13T05:39:24;101469.34;;;17.74;64.18
15314;BME280;7757;52.626;4.746;2022-10-13T05:41:53;101471.53;;;17.53;65.55
15314;BME280;7757;52.626;4.746;2022-10-13T05:44:20;101467.16;;;17.58;64.76
15314;BME280;7757;52.626;4.746;2022-10-13T05:46:46;101465.41;;;17.77;64.15
15314;BME280;7757;52.626;4.746;2022-10-13T05:49:14;101468.28;;;17.82;64.64
15314;BME280;7757;52.626;4.746;2022-10-13T05:51:42;101470.53;;;17.85;64.25
15314;BME280;7757;52.626;4.746;2022-10-13T05:54:13;101464.38;;;17.71;64.77
15314;BME280;7757;52.626;4.746;2022-10-13T05:56:43;101468.31;;;17.75;64.70
15314;BME280;7757;52.626;4.746;2022-10-13T05:59:15;101467.97;;;17.97;63.46
15314;BME280;7757;52.626;4.746;2022-10-13T06:01:43;101459.25;;;17.95;63.17
15314;BME280;7757;52.626;4.746;2022-10-13T06:04:13;101470.44;;;17.98;63.16
15314;BME280;7757;52.626;4.746;2022-10-13T06:06:40;101467.53;;;18.00;63.27
15314;BME280;7757;52.626;4.746;2022-10-13T06:09:07;101459.81;;;18.03;63.51
15314;BME280;7757;52.626;4.746;2022-10-13T06:11:33;101458.69;;;18.11;62.95
15314;BME280;7757;52.626;4.746;2022-10-13T06:14:01;101458.47;;;18.37;63.21
15314;BME280;7757;52.626;4.746;2022-10-13T06:16:29;101469.09;;;18.38;63.15
15314;BME280;7757;52.626;4.746;2022-10-13T06:18:55;101467.16;;;18.70;61.72
15314;BME280;7757;52.626;4.746;2022-10-13T06:21:22;101466.94;;;18.22;63.93
15314;BME280;7757;52.626;4.746;2022-10-13T06:23:48;101459.19;;;18.26;63.84
15314;BME280;7757;52.626;4.746;2022-10-13T06:26:15;101459.94;;;18.15;64.87
15314;BME280;7757;52.626;4.746;2022-10-13T06:28:42;101456.41;;;18.39;64.46
15314;BME280;7757;52.626;4.746;2022-10-13T06:31:08;101451.34;;;18.42;63.25
15314;BME280;7757;52.626;4.746;2022-10-13T06:33:36;101463.34;;;18.28;63.59
15314;BME280;7757;52.626;4.746;2022-10-13T06:36:04;101454.19;;;18.29;63.45
15314;BME280;7757;52.626;4.746;2022-10-13T06:38:32;101463.19;;;18.23;63.27
15314;BME280;7757;52.626;4.746;2022-10-13T06:40:59;101465.22;;;18.28;63.04
15314;BME280;7757;52.626;4.746;2022-10-13T06:43:26;101463.78;;;18.25;63.53
15314;BME280;7757;52.626;4.746;2022-10-13T06:45:56;101461.53;;;18.22;63.57
15314;BME280;7757;52.626;4.746;2022-10-13T06:48:23;101460.13;;;18.13;63.97
15314;BME280;7757;52.626;4.746;2022-10-13T06:50:51;101462.47;;;18.59;63.03
15314;BME280;7757;52.626;4.746;2022-10-13T06:53:18;101463.25;;;19.03;61.12
15314;BME280;7757;52.626;4.746;2022-10-13T06:55:45;101464.38;;;19.13;60.55
15314;BME280;7757;52.626;4.746;2022-10-13T06:58:11;101464.94;;;19.22;60.30
15314;BME280;7757;52.626;4.746;2022-10-13T07:00:39;101471.09;;;19.29;60.44
15314;BME280;7757;52.626;4.746;2022-10-13T07:03:06;101470.41;;;19.33;60.23
15314;BME280;7757;52.626;4.746;2022-10-13T07:05:32;101464.25;;;19.44;60.00
15314;BME280;7757;52.626;4.746;2022-10-13T07:08:00;101464.38;;;19.49;59.34
15314;BME280;7757;52.626;4.746;2022-10-13T07:10:27;101470.75;;;19.55;59.61
15314;BME280;7757;52.626;4.746;2022-10-13T07:12:53;101470.09;;;19.60;59.67
15314;BME280;7757;52.626;4.746;2022-10-13T07:15:20;101464.44;;;19.61;59.29
15314;BME280;7757;52.626;4.746;2022-10-13T07:17:49;101456.53;;;19.60;59.71
15314;BME280;7757;52.626;4.746;2022-10-13T07:20:16;101455.38;;;19.67;59.13
15314;BME280;7757;52.626;4.746;2022-10-13T07:22:43;101456.66;;;19.65;59.00
15314;BME280;7757;52.626;4.746;2022-10-13T07:25:11;101458.91;;;19.68;59.16
15314;BME280;7757;52.626;4.746;2022-10-13T07:27:38;101459.50;;;19.70;59.06
15314;BME280;7757;52.626;4.746;2022-10-13T07:30:06;101452.94;;;19.77;58.76
15314;BME280;7757;52.626;4.746;2022-10-13T07:32:33;101458.47;;;19.82;58.83
15314;BME280;7757;52.626;4.746;2022-10-13T07:35:00;101469.34;;;19.82;58.96
15314;BME280;7757;52.626;4.746;2022-10-13T07:37:28;101458.47;;;19.82;59.26
15314;BME280;7757;52.626;4.746;2022-10-13T07:39:54;101461.78;;;19.84;58.96
15314;BME280;7757;52.626;4.746;2022-10-13T07:42:22;101461.22;;;19.94;58.76
15314;BME280;7757;52.626;4.746;2022-10-13T07:44:49;101456.84;;;19.93;58.87
15314;BME280;7757;52.626;4.746;2022-10-13T07:47:15;101457.59;;;20.00;58.97
15314;BME280;7757;52.626;4.746;2022-10-13T07:49:42;101452.53;;;20.03;58.26
15314;BME280;7757;52.626;4.746;2022-10-13T07:52:09;101455.25;;;20.03;58.30
15314;BME280;7757;52.626;4.746;2022-10-13T07:54:35;101471.28;;;20.05;58.45
15314;BME280;7757;52.626;4.746;2022-10-13T07:57:02;101469.31;;;20.12;58.16
15314;BME280;7757;52.626;4.746;2022-10-13T07:59:32;101470.38;;;20.23;58.34
15314;BME280;7757;52.626;4.746;2022-10-13T08:01:58;101473.03;;;20.29;58.02
15314;BME280;7757;52.626;4.746;2022-10-13T08:04:28;101471.03;;;20.36;58.02
15314;BME280;7757;52.626;4.746;2022-10-13T08:06:54;101477.16;;;20.55;57.67
15314;BME280;7757;52.626;4.746;2022-10-13T08:09:21;101475.06;;;20.69;57.45
15314;BME280;7757;52.626;4.746;2022-10-13T08:11:47;101477.53;;;20.70;56.94
15314;BME280;7757;52.626;4.746;2022-10-13T08:14:14;101472.91;;;20.71;57.25
15314;BME280;7757;52.626;4.746;2022-10-13T08:16:42;101480.25;;;20.70;57.14
15314;BME280;7757;52.626;4.746;2022-10-13T08:19:10;101475.28;;;20.79;56.53
15314;BME280;7757;52.626;4.746;2022-10-13T08:21:36;101482.28;;;20.75;56.87
15314;BME280;7757;52.626;4.746;2022-10-13T08:24:05;101483.22;;;20.80;57.05
15314;BME280;7757;52.626;4.746;2022-10-13T08:26:33;101482.97;;;20.82;56.77
15314;BME280;7757;52.626;4.746;2022-10-13T08:28:59;101478.34;;;20.82;56.65
15314;BME280;7757;52.626;4.746;2022-10-13T08:31:26;101488.75;;;20.85;56.62
15314;BME280;7757;52.626;4.746;2022-10-13T08:33:54;101482.38;;;20.80;56.47
15314;BME280;7757;52.626;4.746;2022-10-13T08:36:22;101474.00;;;20.81;56.19
15314;BME280;7757;52.626;4.746;2022-10-13T08:38:49;101473.63;;;21.01;55.68
15314;BME280;7757;52.626;4.746;2022-10-13T08:41:19;101476.34;;;21.12;56.18
15314;BME280;7757;52.626;4.746;2022-10-13T08:43:48;101485.69;;;21.17;55.62
15314;BME280;7757;52.626;4.746;2022-10-13T08:46:19;101476.78;;;21.21;55.48
15314;BME280;7757;52.626;4.746;2022-10-13T08:48:49;101482.31;;;21.26;55.96
15314;BME280;7757;52.626;4.746;2022-10-13T08:51:18;101482.44;;;21.31;55.50
15314;BME280;7757;52.626;4.746;2022-10-13T08:53:45;101475.91;;;21.32;55.47
15314;BME280;7757;52.626;4.746;2022-10-13T08:56:17;101480.06;;;21.35;55.01
15314;BME280;7757;52.626;4.746;2022-10-13T08:58:45;101470.91;;;21.41;55.00
15314;BME280;7757;52.626;4.746;2022-10-13T09:01:14;101474.75;;;21.40;54.89
15314;BME280;7757;52.626;4.746;2022-10-13T09:03:48;101475.31;;;21.42;54.95
15314;BME280;7757;52.626;4.746;2022-10-13T09:06:20;101474.13;;;21.38;55.36
15314;BME280;7757;52.626;4.746;2022-10-13T09:08:54;101465.97;;;21.38;55.25
15314;BME280;7757;52.626;4.746;2022-10-13T09:11:24;101470.34;;;21.39;54.68
15314;BME280;7757;52.626;4.746;2022-10-13T09:13:58;101476.63;;;21.39;54.69
15314;BME280;7757;52.626;4.746;2022-10-13T09:16:28;101467.81;;;21.09;55.90
15314;BME280;7757;52.626;4.746;2022-10-13T09:19:16;101472.91;;;20.94;55.88
15314;BME280;7757;52.626;4.746;2022-10-13T09:21:46;101474.53;;;21.06;56.13
15314;BME280;7757;52.626;4.746;2022-10-13T09:24:15;101474.28;;;21.31;55.65
15314;BME280;7757;52.626;4.746;2022-10-13T09:26:43;101469.97;;;21.47;55.03
15314;BME280;7757;52.626;4.746;2022-10-13T09:29:15;101465.59;;;21.46;54.99
15314;BME280;7757;52.626;4.746;2022-10-13T09:31:43;101460.00;;;21.52;54.96
15314;BME280;7757;52.626;4.746;2022-10-13T09:34:21;101461.09;;;21.51;54.98
15314;BME280;7757;52.626;4.746;2022-10-13T09:36:57;101460.94;;;21.18;55.67
15314;BME280;7757;52.626;4.746;2022-10-13T09:39:25;101471.38;;;21.09;55.52
15314;BME280;7757;52.626;4.746;2022-10-13T09:41:52;101465.88;;;21.33;55.18
15314;BME280;7757;52.626;4.746;2022-10-13T09:44:34;101467.50;;;21.45;54.61
15314;BME280;7757;52.626;4.746;2022-10-13T09:47:02;101477.63;;;21.50;54.81
15314;BME280;7757;52.626;4.746;2022-10-13T09:49:32;101478.47;;;21.50;54.93
15314;BME280;7757;52.626;4.746;2022-10-13T09:52:03;101487.81;;;21.54;55.04
15314;BME280;7757;52.626;4.746;2022-10-13T09:54:42;101483.44;;;21.53;54.61
15314;BME280;7757;52.626;4.746;2022-10-13T09:57:16;101486.50;;;21.57;54.92
15314;BME280;7757;52.626;4.746;2022-10-13T09:59:47;101491.03;;;21.51;54.99
15314;BME280;7757;52.626;4.746;2022-10-13T10:02:19;101483.34;;;21.48;54.29
15314;BME280;7757;52.626;4.746;2022-10-13T10:04:48;101485.22;;;21.48;54.98
15314;BME280;7757;52.626;4.746;2022-10-13T10:07:19;101483.34;;;21.48;54.34
15314;BME280;7757;52.626;4.746;2022-10-13T10:09:50;101483.09;;;21.50;54.30
15314;BME280;7757;52.626;4.746;2022-10-13T10:12:20;101484.19;;;21.49;54.28
15314;BME280;7757;52.626;4.746;2022-10-13T10:14:48;101486.06;;;21.48;54.84
15314;BME280;7757;52.626;4.746;2022-10-13T10:17:20;101468.56;;;21.44;54.68
15314;BME280;7757;52.626;4.746;2022-10-13T10:19:58;101480.00;;;21.46;54.31
15314;BME280;7757;52.626;4.746;2022-10-13T10:22:34;101482.16;;;21.44;54.50
15314;BME280;7757;52.626;4.746;2022-10-13T10:25:15;101486.28;;;21.47;55.04
15314;BME280;7757;52.626;4.746;2022-10-13T10:27:50;101498.22;;;21.57;55.00
15314;BME280;7757;52.626;4.746;2022-10-13T10:30:20;101489.09;;;21.63;55.13
15314;BME280;7757;52.626;4.746;2022-10-13T10:32:52;101485.19;;;21.08;56.18
15314;BME280;7757;52.626;4.746;2022-10-13T10:35:25;101483.88;;;21.34;54.99
15314;BME280;7757;52.626;4.746;2022-10-13T10:38:09;101488.34;;;21.40;55.03
15314;BME280;7757;52.626;4.746;2022-10-13T10:40:48;101483.47;;;21.42;55.18
15314;BME280;7757;52.626;4.746;2022-10-13T10:46:13;101477.28;;;21.46;55.16
15314;BME280;7757;52.626;4.746;2022-10-13T10:48:43;101476.72;;;21.44;55.44
15314;BME280;7757;52.626;4.746;2022-10-13T10:51:11;101469.88;;;21.42;54.66
15314;BME280;7757;52.626;4.746;2022-10-13T10:53:53;101464.50;;;21.47;54.53
15314;BME280;7757;52.626;4.746;2022-10-13T10:56:28;101466.75;;;21.50;55.49
15314;BME280;7757;52.626;4.746;2022-10-13T10:59:04;101468.91;;;21.48;55.20
15314;BME280;7757;52.626;4.746;2022-10-13T11:01:38;101454.38;;;21.42;54.93
15314;BME280;7757;52.626;4.746;2022-10-13T11:04:31;101443.13;;;21.39;55.41
15314;BME280;7757;52.626;4.746;2022-10-13T11:06:59;101443.97;;;21.39;55.44
15314;BME280;7757;52.626;4.746;2022-10-13T11:10:02;101443.00;;;21.45;55.65
15314;BME280;7757;52.626;4.746;2022-10-13T11:13:14;101440.84;;;21.47;55.21
15314;BME280;7757;52.626;4.746;2022-10-13T11:15:41;101433.13;;;21.56;55.02
15314;BME280;7757;52.626;4.746;2022-10-13T11:21:12;101439.97;;;21.58;54.70
15314;BME280;7757;52.626;4.746;2022-10-13T11:23:43;101440.78;;;21.59;55.36
15314;BME280;7757;52.626;4.746;2022-10-13T11:26:39;101438.81;;;21.54;55.50
15314;BME280;7757;52.626;4.746;2022-10-13T11:29:16;101430.53;;;21.49;55.54
15314;BME280;7757;52.626;4.746;2022-10-13T11:31:49;101434.34;;;21.48;55.16
15314;BME280;7757;52.626;4.746;2022-10-13T11:34:28;101435.41;;;21.47;55.29
15314;BME280;7757;52.626;4.746;2022-10-13T11:36:57;101437.56;;;21.45;55.26
15314;BME280;7757;52.626;4.746;2022-10-13T11:43:01;101429.38;;;21.45;55.81
15314;BME280;7757;52.626;4.746;2022-10-13T11:45:51;101422.63;;;21.48;55.41
15314;BME280;7757;52.626;4.746;2022-10-13T11:48:53;101418.84;;;21.49;55.61
15314;BME280;7757;52.626;4.746;2022-10-13T11:51:34;101408.63;;;21.56;55.48
15314;BME280;7757;52.626;4.746;2022-10-13T11:54:12;101401.28;;;21.56;55.17
15314;BME280;7757;52.626;4.746;2022-10-13T11:56:47;101411.94;;;21.58;55.09
15314;BME280;7757;52.626;4.746;2022-10-13T11:59:24;101401.53;;;21.55;55.24
15314;BME280;7757;52.626;4.746;2022-10-13T12:01:55;101406.81;;;21.61;55.46
15314;BME280;7757;52.626;4.746;2022-10-13T12:04:24;101409.66;;;21.66;55.29
15314;BME280;7757;52.626;4.746;2022-10-13T12:06:54;101393.88;;;21.68;54.86
15314;BME280;7757;52.626;4.746;2022-10-13T12:09:22;101398.50;;;21.68;55.18
15314;BME280;7757;52.626;4.746;2022-10-13T12:11:55;101401.56;;;21.72;55.32
15314;BME280;7757;52.626;4.746;2022-10-13T12:14:27;101401.56;;;21.72;54.92
15314;BME280;7757;52.626;4.746;2022-10-13T12:16:56;101390.59;;;21.66;55.08
15314;BME280;7757;52.626;4.746;2022-10-13T12:19:25;101398.50;;;21.68;55.00
15314;BME280;7757;52.626;4.746;2022-10-13T12:21:53;101394.72;;;21.69;55.42
15314;BME280;7757;52.626;4.746;2022-10-13T12:24:21;101394.72;;;21.69;54.92
15314;BME280;7757;52.626;4.746;2022-10-13T12:26:48;101393.38;;;21.72;54.92
15314;BME280;7757;52.626;4.746;2022-10-13T12:29:15;101394.63;;;21.64;55.27
15314;BME280;7757;52.626;4.746;2022-10-13T12:31:45;101399.47;;;21.62;55.03
15314;BME280;7757;52.626;4.746;2022-10-13T12:34:19;101391.72;;;21.54;55.26
15314;BME280;7757;52.626;4.746;2022-10-13T12:36:53;101397.72;;;21.56;55.78
15314;BME280;7757;52.626;4.746;2022-10-13T12:39:21;101406.81;;;21.61;55.56
15314;BME280;7757;52.626;4.746;2022-10-13T12:41:49;101407.91;;;21.60;55.10
15314;BME280;7757;52.626;4.746;2022-10-13T12:44:19;101397.25;;;21.59;55.73
15314;BME280;7757;52.626;4.746;2022-10-13T12:46:49;101398.34;;;21.58;55.35
15314;BME280;7757;52.626;4.746;2022-10-13T12:49:20;101396.41;;;21.58;55.79
15314;BME280;7757;52.626;4.746;2022-10-13T12:51:49;101400.78;;;21.59;55.82
15314;BME280;7757;52.626;4.746;2022-10-13T12:54:20;101394.84;;;21.46;55.33
15314;BME280;7757;52.626;4.746;2022-10-13T12:56:48;101398.63;;;21.45;55.26
15314;BME280;7757;52.626;4.746;2022-10-13T12:59:16;101400.28;;;21.46;55.36
15314;BME280;7757;52.626;4.746;2022-10-13T13:01:44;101413.41;;;21.49;55.15
15314;BME280;7757;52.626;4.746;2022-10-13T13:04:26;101402.25;;;21.50;55.10
15314;BME280;7757;52.626;4.746;2022-10-13T13:06:54;101403.03;;;21.62;55.42
15314;BME280;7757;52.626;4.746;2022-10-13T13:09:26;101405.88;;;21.84;55.09
15314;BME280;7757;52.626;4.746;2022-10-13T13:12:25;101406.09;;;22.11;54.50
15314;BME280;7757;52.626;4.746;2022-10-13T13:14:53;101403.06;;;22.29;54.80
15314;BME280;7757;52.626;4.746;2022-10-13T13:17:31;101396.22;;;22.43;53.91
15314;BME280;7757;52.626;4.746;2022-10-13T13:19:59;101399.41;;;22.57;53.82
15314;BME280;7757;52.626;4.746;2022-10-13T13:22:25;101400.97;;;22.69;53.92
15314;BME280;7757;52.626;4.746;2022-10-13T13:24:52;101395.34;;;22.76;53.84